createdAt,value
2023-04-17T00:01:44.980Z,99138.46
2023-04-17T00:03:48.328Z,99139.60
2023-04-17T00:05:54.598Z,99136.61
2023-04-17T00:08:03.422Z,99137.89
2023-04-17T00:10:13.480Z,99139.14
2023-04-17T00:12:17.513Z,99142.45
2023-04-17T00:14:20.464Z,99138.21
2023-04-17T00:16:23.813Z,99139.50
2023-04-17T00:18:26.552Z,99138.48
2023-04-17T00:20:31.711Z,99144.17
2023-04-17T00:22:35.756Z,99139.98
2023-04-17T00:24:38.469Z,99141.51
2023-04-17T00:26:41.500Z,99138.21
2023-04-17T00:28:44.675Z,99139.55
2023-04-17T00:30:48.456Z,99137.38
2023-04-17T00:32:53.820Z,99135.41
2023-04-17T00:34:59.324Z,99137.30
2023-04-17T00:37:02.175Z,99135.55
2023-04-17T00:39:04.977Z,99138.20
2023-04-17T00:41:09.642Z,99136.46
2023-04-17T00:43:12.625Z,99134.50
2023-04-17T00:45:16.104Z,99131.30
2023-04-17T00:47:19.236Z,99129.17
2023-04-17T00:49:24.087Z,99126.95
2023-04-17T00:51:28.403Z,99124.38
2023-04-17T00:53:34.040Z,99127.52
2023-04-17T00:55:45.452Z,99123.34
2023-04-17T00:57:49.542Z,99127.36
2023-04-17T00:59:58.977Z,99130.39
2023-04-17T01:02:02.545Z,99127.61
2023-04-17T01:04:06.525Z,99128.07
2023-04-17T01:06:11.305Z,99126.69
2023-04-17T01:08:18.576Z,99123.60
2023-04-17T01:10:21.672Z,99120.98
2023-04-17T01:12:25.545Z,99123.64
2023-04-17T01:14:29.012Z,99119.42
2023-04-17T01:16:34.202Z,99124.02
2023-04-17T01:18:37.064Z,99125.02
2023-04-17T01:20:40.123Z,99122.70
2023-04-17T01:22:42.922Z,99121.79
2023-04-17T01:24:49.398Z,99122.02
2023-04-17T01:26:53.614Z,99122.96
2023-04-17T01:28:58.799Z,99125.50
2023-04-17T01:31:02.576Z,99127.46
2023-04-17T01:33:07.482Z,99124.05
2023-04-17T01:35:10.732Z,99124.90
2023-04-17T01:37:14.678Z,99126.63
2023-04-17T01:39:17.850Z,99126.93
2023-04-17T01:41:20.633Z,99128.09
2023-04-17T01:43:24.542Z,99130.33
2023-04-17T01:45:31.012Z,99127.52
2023-04-17T01:47:34.124Z,99131.88
2023-04-17T01:49:38.418Z,99129.27
2023-04-17T01:51:41.340Z,99129.25
2023-04-17T01:53:44.077Z,99129.95
2023-04-17T01:55:47.035Z,99126.25
2023-04-17T01:57:52.184Z,99123.55
2023-04-17T01:59:56.033Z,99124.31
2023-04-17T02:01:59.328Z,99124.92
2023-04-17T02:04:02.285Z,99122.16
2023-04-17T02:06:06.127Z,99122.14
2023-04-17T02:08:10.289Z,99118.64
2023-04-17T02:10:14.332Z,99120.90
2023-04-17T02:12:17.679Z,99120.04
2023-04-17T02:14:21.030Z,99121.36
2023-04-17T02:16:23.804Z,99120.80
2023-04-17T02:18:28.790Z,99121.90
2023-04-17T02:20:34.822Z,99121.66
2023-04-17T02:22:37.803Z,99123.40
2023-04-17T02:24:40.924Z,99128.54
2023-04-17T02:26:43.590Z,99125.59
2023-04-17T02:28:48.800Z,99128.40
2023-04-17T02:30:54.427Z,99129.55
2023-04-17T02:32:57.713Z,99126.21
2023-04-17T02:35:02.868Z,99131.33
2023-04-17T02:37:05.818Z,99129.48
2023-04-17T02:39:09.180Z,99130.23
2023-04-17T02:41:12.516Z,99125.73
2023-04-17T02:43:22.041Z,99128.48
2023-04-17T02:45:25.532Z,99129.13
2023-04-17T02:47:28.638Z,99129.89
2023-04-17T02:49:32.858Z,99127.55
2023-04-17T02:51:37.448Z,99128.61
2023-04-17T02:53:42.705Z,99130.14
2023-04-17T02:55:45.381Z,99133.36
2023-04-17T02:57:49.006Z,99133.40
2023-04-17T02:59:52.911Z,99133.24
2023-04-17T03:01:59.723Z,99131.17
2023-04-17T03:04:03.504Z,99131.11
2023-04-17T03:06:10.804Z,99129.90
2023-04-17T03:08:16.499Z,99130.16
2023-04-17T03:10:21.615Z,99130.30
2023-04-17T03:12:25.479Z,99131.89
2023-04-17T03:14:28.731Z,99132.46
2023-04-17T03:16:34.503Z,99136.09
2023-04-17T03:18:41.327Z,99137.13
2023-04-17T03:20:44.312Z,99137.14
2023-04-17T03:22:47.084Z,99137.15
2023-04-17T03:24:51.440Z,99138.23
2023-04-17T03:26:54.720Z,99137.85
2023-04-17T03:28:57.526Z,99137.53
2023-04-17T03:31:01.260Z,99134.98
2023-04-17T03:33:08.733Z,99138.23
2023-04-17T03:35:11.493Z,99134.71
2023-04-17T03:37:15.333Z,99137.19
2023-04-17T03:39:20.760Z,99137.06
2023-04-17T03:41:28.449Z,99139.55
2023-04-17T03:43:33.313Z,99137.89
2023-04-17T03:45:37.401Z,99138.32
2023-04-17T03:47:40.517Z,99137.70
2023-04-17T03:49:43.854Z,99138.19
2023-04-17T03:51:46.628Z,99137.75
2023-04-17T03:53:53.945Z,99135.90
2023-04-17T03:55:58.717Z,99133.48
2023-04-17T03:58:04.390Z,99136.08
2023-04-17T04:00:10.832Z,99132.27
2023-04-17T04:02:24.971Z,99135.42
2023-04-17T04:04:29.993Z,99138.14
2023-04-17T04:06:42.763Z,99139.70
2023-04-17T04:08:49.617Z,99148.01
2023-04-17T04:10:53.303Z,99149.43
2023-04-17T04:13:00.953Z,99151.15
2023-04-17T04:15:07.144Z,99152.82
2023-04-17T04:17:11.181Z,99157.14
2023-04-17T04:19:17.159Z,99153.65
2023-04-17T04:21:21.758Z,99154.98
2023-04-17T04:23:25.144Z,99158.60
2023-04-17T04:25:29.886Z,99159.80
2023-04-17T04:27:49.900Z,99164.04
2023-04-17T04:30:02.606Z,99164.67
2023-04-17T04:32:10.461Z,99163.66
2023-04-17T04:34:19.016Z,99165.33
2023-04-17T04:36:23.421Z,99165.41
2023-04-17T04:38:33.057Z,99164.66
2023-04-17T04:40:45.304Z,99166.11
2023-04-17T04:42:49.933Z,99167.33
2023-04-17T04:45:00.182Z,99164.73
2023-04-17T04:47:05.644Z,99168.52
2023-04-17T04:49:10.077Z,99171.41
2023-04-17T04:51:13.467Z,99166.14
2023-04-17T04:53:18.001Z,99170.11
2023-04-17T04:55:30.712Z,99171.70
2023-04-17T04:57:34.751Z,99177.08
2023-04-17T04:59:39.011Z,99176.95
2023-04-17T05:02:05.095Z,99180.10
2023-04-17T05:04:09.185Z,99184.77
2023-04-17T05:06:14.719Z,99186.45
2023-04-17T05:08:21.549Z,99187.10
2023-04-17T05:10:32.122Z,99187.63
2023-04-17T05:12:37.629Z,99188.55
2023-04-17T05:14:42.714Z,99187.63
2023-04-17T05:16:46.105Z,99190.74
2023-04-17T05:18:50.225Z,99191.98
2023-04-17T05:20:59.908Z,99191.73
2023-04-17T05:23:05.722Z,99194.27
2023-04-17T05:25:09.612Z,99199.08
2023-04-17T05:27:13.155Z,99197.75
2023-04-17T05:29:21.977Z,99199.08
2023-04-17T05:31:29.718Z,99199.20
2023-04-17T05:33:37.027Z,99198.47
2023-04-17T05:35:44.803Z,99199.30
2023-04-17T05:37:52.858Z,99198.43
2023-04-17T05:39:56.340Z,99198.48
2023-04-17T05:41:59.357Z,99196.49
2023-04-17T05:44:02.514Z,99196.19
2023-04-17T05:46:09.450Z,99197.05
2023-04-17T05:48:12.596Z,99199.81
2023-04-17T05:50:16.015Z,99197.62
2023-04-17T05:52:20.919Z,99200.52
2023-04-17T05:54:24.610Z,99199.48
2023-04-17T05:56:28.719Z,99195.59
2023-04-17T05:58:32.499Z,99195.48
2023-04-17T06:00:36.774Z,99199.27
2023-04-17T06:02:43.068Z,99200.64
2023-04-17T06:04:48.239Z,99200.06
2023-04-17T06:06:52.330Z,99199.08
2023-04-17T06:08:55.734Z,99195.89
2023-04-17T06:10:58.921Z,99200.98
2023-04-17T06:13:02.416Z,99198.98
2023-04-17T06:15:09.352Z,99200.04
2023-04-17T06:17:15.656Z,99200.04
2023-04-17T06:19:19.094Z,99197.79
2023-04-17T06:21:23.421Z,99204.85
2023-04-17T06:23:27.668Z,99205.06
2023-04-17T06:25:31.462Z,99208.16
2023-04-17T06:27:36.518Z,99211.48
2023-04-17T06:29:44.193Z,99212.89
2023-04-17T06:31:47.053Z,99213.61
2023-04-17T06:33:54.509Z,99216.11
2023-04-17T06:36:05.431Z,99219.19
2023-04-17T06:38:24.410Z,99219.52
2023-04-17T06:40:29.009Z,99223.21
2023-04-17T06:42:35.731Z,99225.23
2023-04-17T06:44:41.262Z,99224.81
2023-04-17T06:46:53.863Z,99226.58
2023-04-17T06:48:59.545Z,99229.11
2023-04-17T06:51:06.218Z,99229.32
2023-04-17T06:53:09.076Z,99230.71
2023-04-17T06:55:12.392Z,99232.17
2023-04-17T06:57:15.081Z,99233.36
2023-04-17T06:59:22.168Z,99239.09
2023-04-17T07:01:25.070Z,99239.48
2023-04-17T07:03:27.977Z,99239.33
2023-04-17T07:05:30.806Z,99242.45
2023-04-17T07:07:40.295Z,99243.14
2023-04-17T07:09:44.151Z,99243.88
2023-04-17T07:11:47.192Z,99245.54
2023-04-17T07:13:50.029Z,99246.83
2023-04-17T07:15:56.857Z,99242.58
2023-04-17T07:17:59.781Z,99244.37
2023-04-17T07:20:05.479Z,99250.41
2023-04-17T07:22:10.408Z,99248.84
2023-04-17T07:24:13.582Z,99250.93
2023-04-17T07:26:21.808Z,99250.51
2023-04-17T07:28:26.586Z,99251.83
2023-04-17T07:30:30.027Z,99255.69
2023-04-17T07:32:36.283Z,99256.44
2023-04-17T07:34:41.925Z,99256.96
2023-04-17T07:36:45.744Z,99255.94
2023-04-17T07:38:49.685Z,99262.41
2023-04-17T07:40:52.517Z,99260.94
2023-04-17T07:42:56.690Z,99258.93
2023-04-17T07:45:00.863Z,99259.56
2023-04-17T07:47:03.895Z,99263.95
2023-04-17T07:49:06.885Z,99264.23
2023-04-17T07:51:10.625Z,99262.23
2023-04-17T07:53:16.829Z,99263.86
2023-04-17T07:55:20.906Z,99260.16
2023-04-17T07:57:33.202Z,99265.25
2023-04-17T07:59:42.906Z,99265.77
2023-04-17T08:01:45.722Z,99269.30
2023-04-17T08:03:49.400Z,99268.84
2023-04-17T08:05:53.319Z,99267.55
2023-04-17T08:07:56.505Z,99271.09
2023-04-17T08:09:59.282Z,99271.13
2023-04-17T08:12:02.056Z,99270.73
2023-04-17T08:14:06.412Z,99268.77
2023-04-17T08:16:11.960Z,99272.36
2023-04-17T08:18:17.458Z,99270.81
2023-04-17T08:20:23.244Z,99273.27
2023-04-17T08:22:26.674Z,99273.29
2023-04-17T08:24:32.616Z,99278.80
2023-04-17T08:26:36.281Z,99280.67
2023-04-17T08:28:39.274Z,99282.25
2023-04-17T08:30:42.317Z,99284.39
2023-04-17T08:32:47.838Z,99286.75
2023-04-17T08:34:51.254Z,99286.20
2023-04-17T08:36:53.969Z,99287.36
2023-04-17T08:38:56.931Z,99286.64
2023-04-17T08:41:05.697Z,99290.83
2023-04-17T08:43:21.713Z,99293.09
2023-04-17T08:45:25.789Z,99296.60
2023-04-17T08:47:29.020Z,99295.08
2023-04-17T08:49:35.407Z,99297.23
2023-04-17T08:51:39.752Z,99295.91
2023-04-17T08:53:42.587Z,99299.73
2023-04-17T08:55:46.627Z,99301.59
2023-04-17T08:58:04.427Z,99305.07
2023-04-17T09:00:13.037Z,99301.86
2023-04-17T09:02:19.055Z,99300.64
2023-04-17T09:04:44.967Z,99300.73
2023-04-17T09:06:53.012Z,99301.75
2023-04-17T09:09:02.096Z,99303.52
2023-04-17T09:11:21.572Z,99299.71
2023-04-17T09:13:26.145Z,99303.40
2023-04-17T09:15:29.891Z,99302.28
2023-04-17T09:17:34.814Z,99302.85
2023-04-17T09:20:12.408Z,99303.20
2023-04-17T09:22:22.740Z,99307.83
2023-04-17T09:24:38.443Z,99305.36
2023-04-17T09:26:46.956Z,99306.89
2023-04-17T09:29:14.598Z,99302.92
2023-04-17T09:31:28.509Z,99303.39
2023-04-17T09:33:33.863Z,99305.55
2023-04-17T09:35:41.485Z,99304.34
2023-04-17T09:37:58.928Z,99306.77
2023-04-17T09:40:08.913Z,99308.04
2023-04-17T09:42:12.619Z,99309.48
2023-04-17T09:44:30.174Z,99311.52
2023-04-17T09:46:41.440Z,99312.36
2023-04-17T09:48:51.324Z,99313.90
2023-04-17T09:50:55.745Z,99311.16
2023-04-17T09:53:00.405Z,99313.18
2023-04-17T09:55:07.348Z,99314.98
2023-04-17T09:57:11.277Z,99317.79
2023-04-17T09:59:15.208Z,99315.21
2023-04-17T10:01:26.808Z,99318.46
2023-04-17T10:03:38.739Z,99318.38
2023-04-17T10:05:43.450Z,99322.81
2023-04-17T10:07:48.929Z,99321.56
2023-04-17T10:09:53.027Z,99322.40
2023-04-17T10:11:56.916Z,99324.58
2023-04-17T10:14:12.073Z,99324.64
2023-04-17T10:16:17.856Z,99322.29
2023-04-17T10:18:28.517Z,99321.14
2023-04-17T10:20:35.520Z,99320.38
2023-04-17T10:22:42.072Z,99319.77
2023-04-17T10:25:15.165Z,99322.04
2023-04-17T10:27:28.595Z,99324.00
2023-04-17T10:30:14.535Z,99323.30
2023-04-17T10:32:22.561Z,99321.56
2023-04-17T10:34:44.032Z,99320.64
2023-04-17T10:36:49.670Z,99323.31
2023-04-17T10:38:53.015Z,99320.11
2023-04-17T10:40:55.818Z,99320.22
2023-04-17T10:43:06.369Z,99320.64
2023-04-17T10:45:19.179Z,99320.90
2023-04-17T10:47:26.255Z,99319.23
2023-04-17T10:49:54.696Z,99321.28
2023-04-17T10:51:58.679Z,99319.27
2023-04-17T10:54:04.063Z,99321.56
2023-04-17T10:56:08.607Z,99321.16
2023-04-17T10:58:14.220Z,99319.76
2023-04-17T11:00:18.696Z,99316.97
2023-04-17T11:02:34.166Z,99319.08
2023-04-17T11:04:39.455Z,99314.84
2023-04-17T11:06:45.926Z,99319.30
2023-04-17T11:08:50.512Z,99315.43
2023-04-17T11:10:57.809Z,99319.14
2023-04-17T11:13:00.846Z,99316.30
2023-04-17T11:15:06.353Z,99322.08
2023-04-17T11:17:10.075Z,99319.33
2023-04-17T11:19:18.733Z,99318.96
2023-04-17T11:21:23.952Z,99315.27
2023-04-17T11:23:37.871Z,99319.94
2023-04-17T11:25:44.252Z,99319.78
2023-04-17T11:27:55.662Z,99315.60
2023-04-17T11:30:00.617Z,99316.70
2023-04-17T11:32:03.699Z,99316.65
2023-04-17T11:34:08.380Z,99317.41
2023-04-17T11:36:13.140Z,99315.38
2023-04-17T11:38:22.439Z,99316.72
2023-04-17T11:40:26.073Z,99319.70
2023-04-17T11:42:28.730Z,99320.52
2023-04-17T11:44:31.774Z,99321.51
2023-04-17T11:46:39.046Z,99320.67
2023-04-17T11:48:42.108Z,99319.52
2023-04-17T11:50:45.038Z,99317.73
2023-04-17T11:52:49.296Z,99321.57
2023-04-17T11:54:58.539Z,99323.96
2023-04-17T11:57:03.196Z,99321.05
2023-04-17T11:59:06.137Z,99327.39
2023-04-17T12:01:08.999Z,99324.54
2023-04-17T12:03:36.943Z,99326.42
2023-04-17T12:05:57.656Z,99326.17
2023-04-17T12:08:07.669Z,99326.07
2023-04-17T12:10:12.160Z,99325.52
2023-04-17T12:12:15.270Z,99327.69
2023-04-17T12:14:20.516Z,99326.03
2023-04-17T12:16:27.720Z,99328.10
2023-04-17T12:18:34.009Z,99328.19
2023-04-17T12:20:46.395Z,99327.83
2023-04-17T12:22:49.260Z,99335.12
2023-04-17T12:24:52.325Z,99332.17
2023-04-17T12:26:56.396Z,99329.85
2023-04-17T12:29:03.591Z,99328.15
2023-04-17T12:31:06.297Z,99331.18
2023-04-17T12:33:10.058Z,99329.29
2023-04-17T12:35:13.199Z,99332.47
2023-04-17T12:37:17.185Z,99333.27
2023-04-17T12:39:20.060Z,99332.77
2023-04-17T12:41:27.503Z,99330.94
2023-04-17T12:43:33.739Z,99331.20
2023-04-17T12:45:42.226Z,99329.23
2023-04-17T12:47:46.660Z,99329.61
2023-04-17T12:49:51.029Z,99330.54
2023-04-17T12:51:54.404Z,99327.53
2023-04-17T12:53:57.455Z,99328.40
2023-04-17T12:56:01.380Z,99328.84
2023-04-17T12:58:09.386Z,99328.58
2023-04-17T13:00:20.773Z,99326.39
2023-04-17T13:02:23.827Z,99326.42
2023-04-17T13:04:27.289Z,99326.57
2023-04-17T13:06:30.933Z,99327.88
2023-04-17T13:08:34.135Z,99327.58
2023-04-17T13:10:39.716Z,99328.14
2023-04-17T13:12:43.753Z,99331.44
2023-04-17T13:14:46.934Z,99331.24
2023-04-17T13:16:51.092Z,99331.11
2023-04-17T13:18:54.767Z,99334.55
2023-04-17T13:20:58.617Z,99333.83
2023-04-17T13:23:03.803Z,99331.98
2023-04-17T13:25:07.243Z,99333.20
2023-04-17T13:27:11.291Z,99330.84
2023-04-17T13:29:17.767Z,99330.30
2023-04-17T13:31:26.885Z,99328.73
2023-04-17T13:33:33.301Z,99326.58
2023-04-17T13:35:37.368Z,99323.65
2023-04-17T13:37:48.954Z,99326.62
2023-04-17T13:39:57.964Z,99326.86
2023-04-17T13:42:05.402Z,99326.46
2023-04-17T13:44:08.667Z,99324.10
2023-04-17T13:46:16.011Z,99324.52
2023-04-17T13:48:18.980Z,99324.90
2023-04-17T13:50:23.049Z,99327.39
2023-04-17T13:52:26.203Z,99325.55
2023-04-17T13:54:30.129Z,99325.95
2023-04-17T13:56:34.446Z,99324.98
2023-04-17T13:58:40.461Z,99324.34
2023-04-17T14:00:45.798Z,99324.49
2023-04-17T14:02:50.097Z,99318.35
2023-04-17T14:04:53.955Z,99320.74
2023-04-17T14:06:57.850Z,99321.27
2023-04-17T14:09:12.014Z,99324.61
2023-04-17T14:11:18.033Z,99319.39
2023-04-17T14:13:22.148Z,99326.14
2023-04-17T14:15:33.012Z,99324.38
2023-04-17T14:17:43.642Z,99329.36
2023-04-17T14:19:46.922Z,99325.05
2023-04-17T14:21:50.344Z,99330.52
2023-04-17T14:23:56.815Z,99328.66
2023-04-17T14:26:01.473Z,99324.06
2023-04-17T14:28:13.322Z,99327.41
2023-04-17T14:30:16.008Z,99325.52
2023-04-17T14:32:20.422Z,99324.73
2023-04-17T14:34:25.394Z,99325.48
2023-04-17T14:36:28.420Z,99320.39
2023-04-17T14:38:31.596Z,99317.73
2023-04-17T14:40:36.465Z,99321.39
2023-04-17T14:42:51.128Z,99319.86
2023-04-17T14:44:58.438Z,99318.59
2023-04-17T14:47:01.766Z,99319.20
2023-04-17T14:49:06.444Z,99318.38
2023-04-17T14:51:16.884Z,99318.48
2023-04-17T14:53:22.277Z,99312.42
2023-04-17T14:55:26.573Z,99312.49
2023-04-17T14:57:30.779Z,99310.89
2023-04-17T14:59:34.084Z,99310.23
2023-04-17T15:01:38.628Z,99309.55
2023-04-17T15:03:44.416Z,99309.00
2023-04-17T15:05:50.232Z,99311.94
2023-04-17T15:07:53.838Z,99312.51
2023-04-17T15:09:56.885Z,99313.06
2023-04-17T15:12:01.059Z,99312.91
2023-04-17T15:14:06.238Z,99314.24
2023-04-17T15:16:13.569Z,99316.61
2023-04-17T15:18:16.400Z,99312.78
2023-04-17T15:20:25.145Z,99311.19
2023-04-17T15:22:27.944Z,99307.83
2023-04-17T15:24:31.911Z,99305.20
2023-04-17T15:26:36.694Z,99302.97
2023-04-17T15:28:41.264Z,99303.16
2023-04-17T15:30:44.937Z,99300.89
2023-04-17T15:32:51.441Z,99302.05
2023-04-17T15:34:55.126Z,99302.64
2023-04-17T15:36:59.098Z,99302.84
2023-04-17T15:39:01.978Z,99299.70
2023-04-17T15:41:04.870Z,99301.05
2023-04-17T15:43:10.911Z,99300.89
2023-04-17T15:45:16.114Z,99301.02
2023-04-17T15:47:19.031Z,99297.38
2023-04-17T15:49:21.950Z,99296.80
2023-04-17T15:51:26.538Z,99294.03
2023-04-17T15:53:35.360Z,99293.90
2023-04-17T15:55:50.328Z,99295.11
2023-04-17T15:57:56.257Z,99298.52
2023-04-17T15:59:59.880Z,99296.20
2023-04-17T16:02:06.019Z,99297.91
2023-04-17T16:04:10.360Z,99298.81
2023-04-17T16:06:13.388Z,99302.55
2023-04-17T16:08:16.677Z,99302.57
2023-04-17T16:10:20.412Z,99302.14
2023-04-17T16:12:24.856Z,99305.33
2023-04-17T16:14:29.245Z,99301.78
2023-04-17T16:16:35.918Z,99304.84
2023-04-17T16:18:38.610Z,99302.62
2023-04-17T16:20:46.549Z,99303.70
2023-04-17T16:22:57.304Z,99303.89
2023-04-17T16:25:05.094Z,99305.08
2023-04-17T16:27:09.693Z,99306.75
2023-04-17T16:29:44.179Z,99306.41
2023-04-17T16:31:47.759Z,99307.71
2023-04-17T16:33:52.566Z,99310.77
2023-04-17T16:35:56.586Z,99310.38
2023-04-17T16:38:01.467Z,99314.17
2023-04-17T16:40:05.378Z,99314.63
2023-04-17T16:42:11.630Z,99313.70
2023-04-17T16:44:15.141Z,99315.23
2023-04-17T16:46:31.820Z,99310.02
2023-04-17T16:48:46.282Z,99312.02
2023-04-17T16:50:50.881Z,99306.66
2023-04-17T16:52:58.629Z,99311.19
2023-04-17T16:55:02.052Z,99309.70
2023-04-17T16:57:06.037Z,99315.41
2023-04-17T16:59:09.146Z,99318.10
2023-04-17T17:01:14.458Z,99322.14
2023-04-17T17:03:19.447Z,99324.55
2023-04-17T17:05:27.679Z,99325.23
2023-04-17T17:07:31.736Z,99327.09
2023-04-17T17:09:38.214Z,99325.49
2023-04-17T17:11:42.140Z,99325.41
2023-04-17T17:13:51.688Z,99325.85
2023-04-17T17:15:56.066Z,99326.60
2023-04-17T17:18:00.292Z,99326.80
2023-04-17T17:20:13.705Z,99327.66
2023-04-17T17:22:18.023Z,99331.77
2023-04-17T17:24:20.914Z,99328.44
2023-04-17T17:26:23.665Z,99331.64
2023-04-17T17:28:26.762Z,99330.23
2023-04-17T17:30:31.009Z,99330.75
2023-04-17T17:32:34.173Z,99328.81
2023-04-17T17:34:38.149Z,99331.77
2023-04-17T17:36:43.275Z,99330.11
2023-04-17T17:38:50.905Z,99328.96
2023-04-17T17:40:56.950Z,99332.39
2023-04-17T17:42:59.700Z,99334.40
2023-04-17T17:45:06.162Z,99334.73
2023-04-17T17:47:10.052Z,99334.66
2023-04-17T17:49:14.635Z,99334.34
2023-04-17T17:51:17.513Z,99333.79
2023-04-17T17:53:26.305Z,99332.67
2023-04-17T17:55:30.558Z,99334.73
2023-04-17T17:57:47.865Z,99337.71
2023-04-17T17:59:57.863Z,99334.75
2023-04-17T18:02:03.566Z,99334.59
2023-04-17T18:04:06.696Z,99334.66
2023-04-17T18:06:11.937Z,99334.58
2023-04-17T18:08:17.746Z,99336.01
2023-04-17T18:10:21.462Z,99335.61
2023-04-17T18:12:31.867Z,99340.40
2023-04-17T18:14:36.472Z,99341.20
2023-04-17T18:16:39.590Z,99338.44
2023-04-17T18:18:45.693Z,99342.73
2023-04-17T18:20:49.376Z,99339.94
2023-04-17T18:22:54.017Z,99341.16
2023-04-17T18:24:56.815Z,99341.55
2023-04-17T18:26:59.637Z,99343.30
2023-04-17T18:29:02.578Z,99342.48
2023-04-17T18:31:06.721Z,99346.62
2023-04-17T18:33:14.370Z,99342.17
2023-04-17T18:35:20.750Z,99341.06
2023-04-17T18:37:23.905Z,99340.77
2023-04-17T18:39:27.734Z,99342.98
2023-04-17T18:41:31.563Z,99347.48
2023-04-17T18:43:35.877Z,99348.02
2023-04-17T18:45:41.875Z,99353.64
2023-04-17T18:47:44.731Z,99352.91
2023-04-17T18:49:52.179Z,99355.61
2023-04-17T18:51:57.784Z,99357.04
2023-04-17T18:54:01.077Z,99356.64
2023-04-17T18:56:06.574Z,99363.74
2023-04-17T18:58:09.471Z,99364.71
2023-04-17T19:00:13.585Z,99369.33
2023-04-17T19:02:17.360Z,99372.88
2023-04-17T19:04:22.238Z,99371.80
2023-04-17T19:06:28.208Z,99375.67
2023-04-17T19:08:33.132Z,99375.16
2023-04-17T19:10:36.748Z,99375.30
2023-04-17T19:12:43.025Z,99375.98
2023-04-17T19:14:45.865Z,99373.80
2023-04-17T19:16:50.765Z,99372.95
2023-04-17T19:18:57.266Z,99372.89
2023-04-17T19:21:00.075Z,99368.96
2023-04-17T19:23:02.924Z,99363.33
2023-04-17T19:25:07.896Z,99361.40
2023-04-17T19:27:12.650Z,99362.23
2023-04-17T19:29:18.166Z,99361.86
2023-04-17T19:31:21.490Z,99361.16
2023-04-17T19:33:25.604Z,99362.20
2023-04-17T19:35:28.693Z,99364.62
2023-04-17T19:37:34.739Z,99365.98
2023-04-17T19:39:37.621Z,99368.23
2023-04-17T19:41:43.266Z,99368.75
2023-04-17T19:43:47.260Z,99368.42
2023-04-17T19:45:50.222Z,99364.69
2023-04-17T19:47:56.898Z,99364.21
2023-04-17T19:50:00.614Z,99362.45
2023-04-17T19:52:05.641Z,99367.80
2023-04-17T19:54:10.206Z,99366.88
2023-04-17T19:56:12.949Z,99363.22
2023-04-17T19:58:15.719Z,99361.69
2023-04-17T20:00:21.124Z,99365.99
2023-04-17T20:02:24.224Z,99362.38
2023-04-17T20:04:27.312Z,99362.01
2023-04-17T20:06:30.685Z,99361.89
2023-04-17T20:08:36.271Z,99361.81
2023-04-17T20:10:38.963Z,99361.05
2023-04-17T20:12:42.220Z,99360.09
2023-04-17T20:14:45.817Z,99363.84
2023-04-17T20:16:50.403Z,99359.95
2023-04-17T20:18:53.173Z,99361.18
2023-04-17T20:20:56.223Z,99361.44
2023-04-17T20:22:59.244Z,99356.19
2023-04-17T20:25:03.111Z,99357.26
2023-04-17T20:27:07.528Z,99359.85
2023-04-17T20:29:12.515Z,99357.10
2023-04-17T20:31:17.130Z,99361.77
2023-04-17T20:33:20.037Z,99363.05
2023-04-17T20:35:24.980Z,99364.83
2023-04-17T20:37:27.844Z,99363.30
2023-04-17T20:39:32.878Z,99359.69
2023-04-17T20:41:36.797Z,99359.58
2023-04-17T20:43:42.123Z,99360.33
2023-04-17T20:45:45.251Z,99357.80
2023-04-17T20:49:57.362Z,99360.27
2023-04-17T20:52:00.071Z,99360.90
2023-04-17T20:54:02.785Z,99365.86
2023-04-17T20:56:06.590Z,99361.61
2023-04-17T20:58:10.531Z,99361.16
2023-04-17T21:00:14.175Z,99361.52
2023-04-17T21:02:17.062Z,99358.56
2023-04-17T21:04:20.154Z,99358.90
2023-04-17T21:06:24.266Z,99354.52
2023-04-17T21:08:27.191Z,99357.05
2023-04-17T21:10:31.954Z,99357.98
2023-04-17T21:12:37.420Z,99359.61
2023-04-17T21:14:42.651Z,99361.92
2023-04-17T21:16:47.047Z,99361.36
2023-04-17T21:18:49.720Z,99362.71
2023-04-17T21:20:52.531Z,99366.98
2023-04-17T21:22:55.385Z,99370.30
2023-04-17T21:24:59.852Z,99369.05
2023-04-17T21:27:03.142Z,99367.44
2023-04-17T21:29:05.970Z,99371.14
2023-04-17T21:31:10.591Z,99368.14
2023-04-17T21:33:13.388Z,99368.80
2023-04-17T21:35:16.099Z,99362.04
2023-04-17T21:37:18.813Z,99364.41
2023-04-17T21:39:22.051Z,99365.64
2023-04-17T21:41:25.799Z,99363.73
2023-04-17T21:43:28.456Z,99363.88
2023-04-17T21:45:31.983Z,99361.77
2023-04-17T21:47:35.596Z,99363.20
2023-04-17T21:49:38.383Z,99361.83
2023-04-17T21:51:41.006Z,99363.55
2023-04-17T21:53:44.736Z,99370.46
2023-04-17T21:55:47.946Z,99366.73
2023-04-17T21:57:51.921Z,99367.97
2023-04-17T21:59:55.099Z,99369.33
2023-04-17T22:01:59.406Z,99370.55
2023-04-17T22:04:03.347Z,99368.25
2023-04-17T22:06:06.999Z,99368.14
2023-04-17T22:08:10.806Z,99366.22
2023-04-17T22:10:14.033Z,99370.03
2023-04-17T22:12:23.375Z,99368.34
2023-04-17T22:14:26.317Z,99362.88
2023-04-17T22:16:29.213Z,99364.98
2023-04-17T22:18:31.936Z,99363.45
2023-04-17T22:20:34.558Z,99358.96
2023-04-17T22:22:38.533Z,99359.77
2023-04-17T22:24:41.725Z,99357.55
2023-04-17T22:26:44.328Z,99358.95
2023-04-17T22:28:47.801Z,99359.66
2023-04-17T22:30:51.961Z,99359.55
2023-04-17T22:32:56.573Z,99357.48
2023-04-17T22:34:59.677Z,99355.27
2023-04-17T22:37:02.530Z,99352.35
2023-04-17T22:39:05.288Z,99355.98
2023-04-17T22:41:08.163Z,99352.05
2023-04-17T22:43:12.205Z,99349.96
2023-04-17T22:45:17.649Z,99351.50
2023-04-17T22:47:22.738Z,99351.45
2023-04-17T22:49:26.032Z,99348.96
2023-04-17T22:51:29.601Z,99351.52
2023-04-17T22:53:33.188Z,99350.98
2023-04-17T22:55:36.112Z,99351.85
2023-04-17T22:57:39.294Z,99352.29
2023-04-17T22:59:42.058Z,99350.36
2023-04-17T23:01:44.713Z,99348.61
2023-04-17T23:03:47.503Z,99352.98
2023-04-17T23:05:52.796Z,99351.80
2023-04-17T23:07:58.328Z,99353.77
2023-04-17T23:10:01.710Z,99352.86
2023-04-17T23:12:07.335Z,99354.95
2023-04-17T23:14:11.304Z,99355.20
2023-04-17T23:16:17.453Z,99352.86
2023-04-17T23:18:21.132Z,99351.60
2023-04-17T23:20:25.423Z,99354.41
2023-04-17T23:22:28.427Z,99354.61
2023-04-17T23:24:36.658Z,99355.75
2023-04-17T23:26:40.507Z,99355.48
2023-04-17T23:28:44.206Z,99350.52
2023-04-17T23:30:48.153Z,99350.92
2023-04-17T23:32:52.014Z,99348.77
2023-04-17T23:34:55.389Z,99349.15
2023-04-17T23:36:58.792Z,99353.30
2023-04-17T23:39:01.946Z,99353.31
2023-04-17T23:41:05.169Z,99354.18
2023-04-17T23:43:08.065Z,99351.68
2023-04-17T23:45:11.537Z,99347.34
2023-04-17T23:47:15.995Z,99348.34
2023-04-17T23:49:18.773Z,99348.90
2023-04-17T23:51:21.472Z,99352.89
2023-04-17T23:53:24.297Z,99353.80
2023-04-17T23:55:28.597Z,99354.10
2023-04-17T23:57:34.664Z,99354.36
2023-04-17T23:59:37.392Z,99353.64
